KCNO/CNO METAR and TAF weather

Enter ICAO airport designator
Station Type Date Time Source
KCNO METAR 2019/06/16 07:28 UTC NOAA

KCNO 160728Z 30005KT 8SM OVC014 17/16 A2992 RMK AO2 T01720156


Station Type Date Time Source
KCNO Decoded METAR 2019/06/16 07:28 UTC NOAA

CHINO AIRPORT, CA, United States (KCNO) 33-58N 117-38W 207M
Jun 16, 2019 - 03:28 AM EDT / 2019.06.16 0728 UTC
Wind: from the WNW (300 degrees) at 6 MPH (5 KT):0
Visibility: 8 mile(s):0
Sky conditions: overcast
Temperature: 63.0 F (17.2 C)
Dew Point: 60.1 F (15.6 C)
Relative Humidity: 90%
Pressure (altimeter): 29.92 in. Hg (1013 hPa)
ob: KCNO 160728Z 30005KT 8SM OVC014 17/16 A2992 RMK AO2 T01720156
cycle: 7

Station Type Date Time Source
KCNO TAF UTC NOAA

Error!

Example: see airport list